createdAt,value
2023-01-19T00:03:21.823Z,100.00
2023-01-19T00:08:23.358Z,100.00
2023-01-19T00:13:24.923Z,100.00
2023-01-19T00:18:26.456Z,100.00
2023-01-19T00:23:27.993Z,100.00
2023-01-19T00:28:29.802Z,100.00
2023-01-19T00:33:31.306Z,100.00
2023-01-19T00:38:32.823Z,100.00
2023-01-19T00:43:34.346Z,100.00
2023-01-19T00:48:35.862Z,100.00
2023-01-19T00:53:37.353Z,100.00
2023-01-19T00:58:38.876Z,100.00
2023-01-19T01:03:40.445Z,100.00
2023-01-19T01:08:41.978Z,100.00
2023-01-19T01:13:44.210Z,100.00
2023-01-19T01:18:46.051Z,100.00
2023-01-19T01:23:47.599Z,100.00
2023-01-19T01:28:49.078Z,100.00
2023-01-19T01:33:50.644Z,100.00
2023-01-19T01:38:52.164Z,100.00
2023-01-19T01:43:58.618Z,100.00
2023-01-19T01:49:00.193Z,100.00
2023-01-19T01:54:17.375Z,100.00
2023-01-19T01:59:29.720Z,100.00
2023-01-19T02:04:31.966Z,100.00
2023-01-19T02:09:55.087Z,100.00
2023-01-19T02:14:56.647Z,100.00
2023-01-19T02:19:58.173Z,100.00
2023-01-19T02:24:59.711Z,100.00
2023-01-19T02:30:03.640Z,100.00
2023-01-19T02:35:06.165Z,100.00
2023-01-19T02:40:14.218Z,100.00
2023-01-19T02:45:20.541Z,100.00
2023-01-19T02:51:04.454Z,100.00
2023-01-19T02:56:05.978Z,100.00
2023-01-19T03:01:19.054Z,100.00
2023-01-19T03:06:41.468Z,100.00
2023-01-19T03:11:50.169Z,100.00
2023-01-19T03:16:57.393Z,100.00
2023-01-19T03:22:02.705Z,100.00
2023-01-19T03:27:10.999Z,100.00
2023-01-19T03:32:16.242Z,100.00
2023-01-19T03:37:20.449Z,100.00
2023-01-19T03:42:24.556Z,100.00
2023-01-19T03:47:26.114Z,100.00
2023-01-19T03:52:32.503Z,100.00
2023-01-19T03:57:34.073Z,100.00
2023-01-19T04:02:35.672Z,100.00
2023-01-19T04:07:37.249Z,100.00
2023-01-19T04:12:41.782Z,100.00
2023-01-19T04:17:43.297Z,100.00
2023-01-19T04:22:44.864Z,100.00
2023-01-19T04:27:46.410Z,100.00
2023-01-19T04:32:48.215Z,100.00
2023-01-19T04:37:49.712Z,100.00
2023-01-19T04:42:51.196Z,100.00
2023-01-19T04:47:52.792Z,100.00
2023-01-19T04:52:54.312Z,100.00
2023-01-19T04:57:55.962Z,100.00
2023-01-19T05:02:57.662Z,100.00
2023-01-19T05:07:59.312Z,100.00
2023-01-19T05:13:01.156Z,100.00
2023-01-19T05:18:03.551Z,100.00
2023-01-19T05:23:05.084Z,100.00
2023-01-19T05:28:06.563Z,100.00
2023-01-19T05:33:08.151Z,100.00
2023-01-19T05:38:09.694Z,100.00
2023-01-19T05:43:11.431Z,100.00
2023-01-19T05:48:13.057Z,100.00
2023-01-19T05:53:14.583Z,100.00
2023-01-19T05:58:16.062Z,100.00
2023-01-19T06:03:17.724Z,100.00
2023-01-19T06:08:19.322Z,100.00
2023-01-19T06:13:21.390Z,100.00
2023-01-19T06:18:23.590Z,100.00
2023-01-19T06:23:26.661Z,100.00
2023-01-19T06:28:28.359Z,100.00
2023-01-19T06:33:30.663Z,100.00
2023-01-19T06:38:32.965Z,100.00
2023-01-19T06:43:34.732Z,100.00
2023-01-19T06:48:36.266Z,100.00
2023-01-19T06:53:38.668Z,100.00
2023-01-19T06:58:42.071Z,100.00
2023-01-19T07:03:45.497Z,100.00
2023-01-19T07:08:47.642Z,100.00
2023-01-19T07:13:51.701Z,100.00
2023-01-19T07:18:53.322Z,100.00
2023-01-19T07:23:54.891Z,100.00
2023-01-19T07:28:56.488Z,100.00
2023-01-19T07:33:58.099Z,100.00
2023-01-19T07:38:59.619Z,100.00
2023-01-19T07:44:01.375Z,100.00
2023-01-19T07:49:02.877Z,100.00
2023-01-19T07:54:04.442Z,100.00
2023-01-19T07:59:07.403Z,100.00
2023-01-19T08:04:10.579Z,100.00
2023-01-19T08:09:12.190Z,100.00
2023-01-19T08:14:13.756Z,100.00
2023-01-19T08:19:15.287Z,100.00
2023-01-19T08:24:22.859Z,100.00
2023-01-19T08:29:24.477Z,100.00
2023-01-19T08:34:26.200Z,100.00
2023-01-19T08:39:27.902Z,100.00
2023-01-19T08:44:29.443Z,100.00
2023-01-19T08:49:30.953Z,100.00
2023-01-19T08:54:32.680Z,100.00
2023-01-19T08:59:34.153Z,100.00
2023-01-19T09:04:36.414Z,100.00
2023-01-19T09:09:39.725Z,100.00
2023-01-19T09:14:41.296Z,100.00
2023-01-19T09:19:42.833Z,100.00
2023-01-19T09:24:44.371Z,100.00
2023-01-19T09:29:52.320Z,100.00
2023-01-19T09:34:55.029Z,100.00
2023-01-19T09:39:56.652Z,100.00
2023-01-19T09:44:58.712Z,100.00
2023-01-19T09:50:05.552Z,100.00
2023-01-19T09:55:20.966Z,100.00
2023-01-19T10:00:24.290Z,100.00
2023-01-19T10:05:31.101Z,100.00
2023-01-19T10:10:34.603Z,100.00
2023-01-19T10:15:54.533Z,100.00
2023-01-19T10:21:11.842Z,100.00
2023-01-19T10:26:15.863Z,100.00
2023-01-19T10:31:21.076Z,100.00
2023-01-19T10:36:34.275Z,100.00
2023-01-19T10:41:50.790Z,100.00
2023-01-19T10:46:55.284Z,100.00
2023-01-19T10:51:59.086Z,100.00
2023-01-19T10:57:07.092Z,100.00
2023-01-19T11:02:21.056Z,100.00
2023-01-19T11:07:33.567Z,100.00
2023-01-19T11:12:40.806Z,100.00
2023-01-19T11:17:48.081Z,100.00
2023-01-19T11:23:05.238Z,100.00
2023-01-19T11:28:27.322Z,100.00
2023-01-19T11:33:56.548Z,100.00
2023-01-19T11:39:01.556Z,100.00
2023-01-19T11:44:16.264Z,100.00
2023-01-19T11:49:36.636Z,100.00
2023-01-19T11:54:59.547Z,100.00
2023-01-19T12:00:05.143Z,100.00
2023-01-19T12:05:13.125Z,100.00
2023-01-19T12:10:27.071Z,100.00
2023-01-19T12:15:45.850Z,100.00
2023-01-19T12:20:51.516Z,100.00
2023-01-19T12:26:17.767Z,100.00
2023-01-19T12:31:21.672Z,100.00
2023-01-19T12:36:41.015Z,100.00
2023-01-19T12:41:43.439Z,100.00
2023-01-19T12:46:55.673Z,97.24
2023-01-19T12:52:28.574Z,96.84
2023-01-19T12:57:40.948Z,96.24
2023-01-19T13:02:48.367Z,96.13
2023-01-19T13:08:02.143Z,95.96
2023-01-19T13:13:20.813Z,95.26
2023-01-19T13:18:31.846Z,93.72
2023-01-19T13:23:51.461Z,90.32
2023-01-19T13:29:02.861Z,88.19
2023-01-19T13:34:11.850Z,87.49
2023-01-19T13:39:21.809Z,85.93
2023-01-19T13:44:51.403Z,85.42
2023-01-19T13:49:58.198Z,86.07
2023-01-19T13:55:03.631Z,85.03
2023-01-19T14:00:14.502Z,85.01
2023-01-19T14:05:36.146Z,83.88
2023-01-19T14:10:46.056Z,83.84
2023-01-19T14:15:50.004Z,84.11
2023-01-19T14:20:59.445Z,83.98
2023-01-19T14:26:01.010Z,83.66
2023-01-19T14:31:18.282Z,83.66
2023-01-19T14:36:39.831Z,84.17
2023-01-19T14:41:49.130Z,85.27
2023-01-19T14:46:50.905Z,85.31
2023-01-19T14:51:52.647Z,85.37
2023-01-19T14:56:54.163Z,84.67
2023-01-19T15:01:56.238Z,85.07
2023-01-19T15:06:58.401Z,85.19
2023-01-19T15:12:00.134Z,85.81
2023-01-19T15:17:01.689Z,85.45
2023-01-19T15:22:10.933Z,86.42
2023-01-19T15:27:12.502Z,86.34
2023-01-19T15:32:15.331Z,86.50
2023-01-19T15:37:16.821Z,87.08
2023-01-19T15:42:18.362Z,88.95
2023-01-19T15:47:20.280Z,91.10
2023-01-19T15:52:21.989Z,93.11
2023-01-19T15:57:23.470Z,94.66
2023-01-19T16:02:25.065Z,96.02
2023-01-19T16:07:26.751Z,97.28
2023-01-19T16:12:29.100Z,98.47
2023-01-19T16:17:30.865Z,99.58
2023-01-19T16:22:32.863Z,100.00
2023-01-19T16:27:34.433Z,100.00
2023-01-19T16:32:36.494Z,100.00
2023-01-19T16:37:38.076Z,100.00
2023-01-19T16:42:40.771Z,100.00
2023-01-19T16:47:43.067Z,100.00
2023-01-19T16:52:45.217Z,100.00
2023-01-19T16:57:46.763Z,100.00
2023-01-19T17:02:48.366Z,100.00
2023-01-19T17:07:49.900Z,100.00
2023-01-19T17:12:51.420Z,100.00
2023-01-19T17:17:53.166Z,100.00
2023-01-19T17:22:55.923Z,100.00
2023-01-19T17:28:00.038Z,100.00
2023-01-19T17:33:01.627Z,100.00
2023-01-19T17:38:03.198Z,100.00
2023-01-19T17:43:04.778Z,100.00
2023-01-19T17:48:06.555Z,100.00
2023-01-19T17:53:08.062Z,100.00
2023-01-19T17:58:09.585Z,100.00
2023-01-19T18:03:11.069Z,100.00
2023-01-19T18:08:12.536Z,100.00
2023-01-19T18:13:14.056Z,100.00
2023-01-19T18:18:16.908Z,100.00
2023-01-19T18:23:18.520Z,100.00
2023-01-19T18:28:20.033Z,100.00
2023-01-19T18:33:21.832Z,100.00
2023-01-19T18:38:23.373Z,100.00
2023-01-19T18:43:43.731Z,100.00
2023-01-19T18:48:45.429Z,100.00
2023-01-19T18:53:47.021Z,100.00
2023-01-19T18:58:48.590Z,100.00
2023-01-19T19:03:50.561Z,100.00
2023-01-19T19:08:53.535Z,100.00
2023-01-19T19:13:58.636Z,100.00
2023-01-19T19:19:00.199Z,100.00
2023-01-19T19:24:01.757Z,100.00
2023-01-19T19:29:04.249Z,100.00
2023-01-19T19:34:05.819Z,100.00
2023-01-19T19:39:07.583Z,100.00
2023-01-19T19:44:14.447Z,100.00
2023-01-19T19:49:21.231Z,100.00
2023-01-19T19:54:22.762Z,100.00
2023-01-19T19:59:24.342Z,100.00
2023-01-19T20:04:25.807Z,100.00
2023-01-19T20:09:27.353Z,100.00
2023-01-19T20:14:28.890Z,100.00
2023-01-19T20:19:32.503Z,100.00
2023-01-19T20:24:34.207Z,100.00
2023-01-19T20:29:35.716Z,100.00
2023-01-19T20:34:37.366Z,100.00
2023-01-19T20:39:38.894Z,100.00
2023-01-19T20:44:40.647Z,100.00
2023-01-19T20:49:42.323Z,100.00
2023-01-19T20:54:43.797Z,100.00
2023-01-19T20:59:45.253Z,100.00
2023-01-19T21:04:46.703Z,100.00
2023-01-19T21:09:48.216Z,100.00
2023-01-19T21:14:49.730Z,100.00
2023-01-19T21:19:51.191Z,100.00
2023-01-19T21:24:52.735Z,100.00
2023-01-19T21:29:54.204Z,100.00
2023-01-19T21:34:55.783Z,100.00
2023-01-19T21:39:57.552Z,100.00
2023-01-19T21:44:59.111Z,100.00
2023-01-19T21:50:01.369Z,100.00
2023-01-19T21:55:02.867Z,100.00
2023-01-19T22:00:06.378Z,100.00
2023-01-19T22:05:08.206Z,100.00
2023-01-19T22:10:11.060Z,100.00
2023-01-19T22:15:12.863Z,100.00
2023-01-19T22:20:14.497Z,100.00
2023-01-19T22:25:16.094Z,100.00
2023-01-19T22:30:18.090Z,100.00
2023-01-19T22:35:19.566Z,100.00
2023-01-19T22:40:21.114Z,100.00
2023-01-19T22:45:22.779Z,100.00
2023-01-19T22:50:24.336Z,100.00
2023-01-19T22:55:25.862Z,100.00
2023-01-19T23:00:27.322Z,100.00
2023-01-19T23:05:28.945Z,100.00
2023-01-19T23:10:30.994Z,100.00
2023-01-19T23:15:34.184Z,100.00
2023-01-19T23:20:35.718Z,100.00
2023-01-19T23:25:37.177Z,100.00
2023-01-19T23:30:38.763Z,100.00
2023-01-19T23:35:40.317Z,100.00
2023-01-19T23:40:41.886Z,100.00
2023-01-19T23:45:43.374Z,100.00
2023-01-19T23:50:44.888Z,100.00
2023-01-19T23:55:46.413Z,100.00
